Forside
METAR-TAF:

METAR-TAF

Lufthavne :

Aarhus Lufthavn

Aarhus, Danmark

Breddekreds: 56-18N, længdekreds: 010-37E, højde: 23 m

Aktuelle vejr

Denne rapport blev lavet for 24 minutter siden, kl. 23:50 UTC
Vind 3 kt fra vest
Temperatur 16°C
Fugtighed 88%
Tryk 1014 hPa
Sigt: 6000 m

METAR: EKAH 162350Z AUTO 28003KT 6000NDV NCD 16/14 Q1014

Tid: 02:14 (00:14 UTC)

Vejrudsigter

Denne rapport blev lavet for 1 time og 15 minutter siden, kl. 22:59 UTC
Foreløbig gælder fra 17 på 00 UTC til 17 på 24 UTC
Vind 6 kt fra nordnordvest
Sigt 10 km eller mere
ingen skyer under 1500m og ingen cumulonimbus
Midlertidig
fra 17 på 12 UTC til 17 på 18 UTC
Vind 15 kt fra varierende retninger med vindstød på up til 25 kt
Brudte skyer i en højde af 5000 ft, Cumulonimbus.
tordenbyger, regn

TAF: EKAH 162259Z 1700/1724 34006KT CAVOK TEMPO 1712/1718 VRB15G25KT TSRA BKN050CB

Vejrobservationer og prognoser fra mere end 4000 lufthavne (METAR og TAF).

De gule og røde prikker repræsenterer de meteorologiske stationer.

Flyt musen over at se navnet på stationen.

Så klik over at se vejr observationer og prognoser.

At skifte det kort: Klik på de grønne knapper med et sort kors for at zoome ind; på den grønne knap med en bindestreg for at zoome ud; eller på de grønne pile for tilstødende kort.


METAR-TAF: